Time;durP1;ratioP1;P1;durP2;ratioP2;P2;SDS_P1;SDS_P2;PMS_P1;PMS_P2;Temp;Humidity;BMP_temperature;BMP_pressure;BME280_temperature;BME280_humidity;BME280_pressure;Samples;Min_cycle;Max_cycle;Signal;HPM_P1;HPM_P2
2021/03/27 00:02:37;;;;;;;12.00;9.10;;;10.30;47.20;;;;;;5026987;28;20454;-83
2021/03/27 00:05:13;;;;;;;8.93;8.10;;;10.30;47.20;;;;;;5030900;28;20456;-83
2021/03/27 00:07:53;;;;;;;9.20;7.90;;;10.20;47.90;;;;;;5017996;28;20451;-82
2021/03/27 00:10:27;;;;;;;13.30;8.30;;;10.20;47.50;;;;;;5024573;28;20483;-83
2021/03/27 00:13:02;;;;;;;12.27;8.33;;;10.10;47.70;;;;;;5029188;28;20458;-82
2021/03/27 00:15:35;;;;;;;10.73;8.80;;;10.10;47.80;;;;;;5032529;28;20450;-84
2021/03/27 00:18:10;;;;;;;10.00;8.70;;;10.10;47.70;;;;;;5026007;28;20463;-83
2021/03/27 00:20:47;;;;;;;10.30;9.30;;;10.10;48.00;;;;;;5031100;28;20427;-83
2021/03/27 00:23:18;;;;;;;12.37;9.93;;;10.00;48.00;;;;;;5025631;28;20467;-82
2021/03/27 00:25:49;;;;;;;10.53;9.40;;;9.90;49.10;;;;;;5025967;28;20514;-82
2021/03/27 00:28:21;;;;;;;11.33;9.60;;;9.90;49.30;;;;;;5029590;28;20463;-82
2021/03/27 00:30:53;;;;;;;13.43;9.73;;;9.90;49.40;;;;;;5022288;28;20490;-83
2021/03/27 00:33:22;;;;;;;11.67;9.10;;;9.80;49.20;;;;;;5020893;28;20502;-82
2021/03/27 00:35:56;;;;;;;13.67;9.27;;;9.80;49.50;;;;;;5018858;28;20491;-83
2021/03/27 00:38:29;;;;;;;10.83;9.23;;;9.80;49.60;;;;;;5013285;28;20973;-81
2021/03/27 00:40:57;;;;;;;13.33;10.43;;;9.80;49.70;;;;;;5017076;28;20487;-81
2021/03/27 00:43:28;;;;;;;12.27;9.53;;;9.80;49.60;;;;;;5027327;28;20456;-84
2021/03/27 00:45:59;;;;;;;14.00;10.50;;;9.80;49.80;;;;;;5030451;28;20483;-82
2021/03/27 00:48:30;;;;;;;13.10;10.23;;;9.80;49.90;;;;;;5026655;28;20483;-82
2021/03/27 00:50:59;;;;;;;14.57;10.67;;;9.80;49.90;;;;;;5027925;28;20498;-82
2021/03/27 00:53:31;;;;;;;12.77;9.60;;;9.80;49.90;;;;;;5026033;28;20452;-81
2021/03/27 00:56:03;;;;;;;14.67;10.30;;;9.80;50.10;;;;;;5021925;28;20458;-82
2021/03/27 00:58:35;;;;;;;11.07;9.87;;;9.80;49.90;;;;;;5027538;28;20455;-84
2021/03/27 01:01:06;;;;;;;12.27;10.20;;;9.80;50.00;;;;;;5027105;28;20828;-83
2021/03/27 01:03:40;;;;;;;10.70;9.37;;;9.80;50.00;;;;;;5032777;28;20435;-82
2021/03/27 01:06:10;;;;;;;11.43;9.50;;;9.90;50.30;;;;;;5025870;28;20490;-82
2021/03/27 01:08:42;;;;;;;14.17;10.03;;;9.70;50.20;;;;;;5024768;28;20461;-82
2021/03/27 01:11:12;;;;;;;12.73;9.83;;;9.70;50.30;;;;;;5024678;28;20464;-82
2021/03/27 01:13:43;;;;;;;14.53;10.37;;;9.70;50.40;;;;;;5027573;28;20455;-82
2021/03/27 01:16:14;;;;;;;16.30;10.80;;;9.70;50.40;;;;;;5020835;28;20456;-83
2021/03/27 01:18:44;;;;;;;13.10;10.60;;;9.70;50.40;;;;;;5025884;28;20461;-81
2021/03/27 01:21:14;;;;;;;12.10;10.17;;;9.80;50.40;;;;;;5026194;28;20455;-81
2021/03/27 01:23:42;;;;;;;10.27;9.20;;;9.80;50.10;;;;;;5026423;28;20473;-84
2021/03/27 01:26:13;;;;;;;12.20;9.63;;;9.80;50.10;;;;;;5024545;28;20461;-81
2021/03/27 01:28:42;;;;;;;11.07;9.37;;;9.80;50.50;;;;;;5023936;28;20452;-83
2021/03/27 01:31:16;;;;;;;13.43;9.20;;;9.90;50.50;;;;;;5025121;28;20487;-81
2021/03/27 01:33:53;;;;;;;10.73;8.80;;;10.00;49.50;;;;;;5026734;28;20455;-82
2021/03/27 01:36:23;;;;;;;13.30;9.60;;;10.00;49.40;;;;;;5024866;28;20442;-80
2021/03/27 01:38:56;;;;;;;9.60;8.40;;;10.20;49.40;;;;;;5024376;28;20443;-80
2021/03/27 01:41:32;;;;;;;10.53;8.43;;;10.20;49.30;;;;;;5022990;28;20516;-81
2021/03/27 01:44:10;;;;;;;9.63;7.60;;;10.20;49.40;;;;;;5026852;28;20477;-80
2021/03/27 01:46:57;;;;;;;15.40;9.30;;;10.30;49.50;;;;;;5023901;28;20500;-80
2021/03/27 01:49:32;;;;;;;9.50;8.50;;;10.20;49.50;;;;;;5027378;28;20447;-81
2021/03/27 01:52:19;;;;;;;10.67;8.80;;;10.20;49.60;;;;;;5027412;28;20474;-81
2021/03/27 01:54:56;;;;;;;9.07;8.17;;;10.20;49.70;;;;;;5027094;28;20534;-81
2021/03/27 01:57:31;;;;;;;9.80;8.53;;;10.20;49.80;;;;;;5024159;28;20482;-80
2021/03/27 02:00:00;;;;;;;12.10;7.70;;;10.20;49.80;;;;;;5011698;28;20447;-75
2021/03/27 02:02:34;;;;;;;11.10;8.13;;;10.20;49.90;;;;;;5006384;28;20570;-75
2021/03/27 02:05:06;;;;;;;11.37;8.37;;;10.30;50.00;;;;;;5009826;28;21013;-76
2021/03/27 02:07:43;;;;;;;11.93;8.53;;;10.30;49.90;;;;;;5013918;28;20958;-76
2021/03/27 02:10:18;;;;;;;13.20;8.17;;;10.30;50.00;;;;;;5021133;28;20978;-75
2021/03/27 02:12:57;;;;;;;8.30;7.47;;;10.30;50.00;;;;;;5013207;28;20829;-77
2021/03/27 02:15:36;;;;;;;11.00;9.10;;;10.30;50.00;;;;;;5012620;28;20492;-76
2021/03/27 02:18:09;;;;;;;14.13;8.60;;;10.40;50.10;;;;;;5015854;28;20812;-77
2021/03/27 02:21:05;;;;;;;8.60;7.80;;;10.40;50.00;;;;;;5013731;28;20539;-76
2021/03/27 02:23:48;;;;;;;9.63;8.20;;;10.40;50.10;;;;;;5009935;28;21014;-76
2021/03/27 02:26:30;;;;;;;9.50;8.60;;;10.50;50.20;;;;;;5010739;28;21006;-77
2021/03/27 02:29:27;;;;;;;13.10;8.60;;;10.40;50.10;;;;;;5012317;28;20455;-78
2021/03/27 02:32:00;;;;;;;10.10;8.90;;;10.50;49.60;;;;;;5013649;28;20444;-76
2021/03/27 02:34:36;;;;;;;10.07;9.07;;;10.50;49.50;;;;;;5016643;28;21001;-76
2021/03/27 02:37:06;;;;;;;11.50;7.50;;;10.60;49.60;;;;;;5013376;28;20498;-76
2021/03/27 02:39:42;;;;;;;9.83;8.83;;;10.70;49.70;;;;;;5012647;28;20470;-77
2021/03/27 02:42:22;;;;;;;9.53;7.97;;;10.80;49.30;;;;;;5030309;28;20431;-77
2021/03/27 02:44:54;;;;;;;8.87;7.90;;;10.80;49.40;;;;;;5011458;28;21081;-76
2021/03/27 02:47:38;;;;;;;8.10;7.17;;;10.90;49.80;;;;;;5009252;28;20459;-76
2021/03/27 02:50:18;;;;;;;8.40;7.60;;;10.90;49.90;;;;;;5010469;28;20470;-76
2021/03/27 02:52:58;;;;;;;10.07;7.10;;;10.90;49.90;;;;;;5016710;28;20476;-76
2021/03/27 02:55:30;;;;;;;10.03;7.67;;;10.90;49.90;;;;;;5015246;28;20458;-77
2021/03/27 02:58:04;;;;;;;7.53;6.83;;;10.90;50.30;;;;;;5024165;28;20981;-76
2021/03/27 03:00:41;;;;;;;8.10;7.30;;;10.90;50.20;;;;;;5014839;28;20456;-76
2021/03/27 03:03:17;;;;;;;8.30;7.50;;;10.90;50.50;;;;;;5012566;28;20448;-77
2021/03/27 03:05:49;;;;;;;8.30;7.50;;;10.90;50.80;;;;;;5017316;28;20608;-77
2021/03/27 03:08:22;;;;;;;8.47;7.03;;;10.90;51.10;;;;;;5015951;28;20475;-76
2021/03/27 03:10:56;;;;;;;8.93;6.73;;;10.90;51.50;;;;;;5015224;28;20463;-77
2021/03/27 03:13:29;;;;;;;7.40;5.93;;;10.90;51.60;;;;;;5019381;28;20482;-76
2021/03/27 03:16:16;;;;;;;9.43;6.73;;;10.90;51.80;;;;;;5014256;28;20543;-75
2021/03/27 03:18:51;;;;;;;7.87;5.93;;;10.90;52.00;;;;;;5012606;28;20462;-75
2021/03/27 03:21:25;;;;;;;9.53;6.03;;;10.90;52.20;;;;;;5014044;28;20510;-75
2021/03/27 03:23:59;;;;;;;9.37;7.10;;;11.00;52.30;;;;;;5011925;28;20483;-79
2021/03/27 03:26:41;;;;;;;10.30;7.20;;;10.90;52.30;;;;;;5012157;28;20499;-76
2021/03/27 03:29:18;;;;;;;7.17;6.47;;;10.90;52.40;;;;;;5010163;28;20561;-77
2021/03/27 03:32:01;;;;;;;8.27;6.10;;;10.90;52.50;;;;;;5015388;28;20462;-76
2021/03/27 03:34:44;;;;;;;9.23;7.20;;;10.90;52.60;;;;;;5014062;28;20440;-76
2021/03/27 03:37:17;;;;;;;7.80;6.30;;;10.80;52.70;;;;;;5016101;28;20664;-76
2021/03/27 03:40:09;;;;;;;7.10;6.40;;;10.90;52.90;;;;;;5020277;28;20452;-76
2021/03/27 03:43:02;;;;;;;7.57;5.73;;;10.90;53.00;;;;;;5015412;28;20841;-77
2021/03/27 03:45:43;;;;;;;6.70;6.00;;;10.90;53.00;;;;;;5020707;28;20479;-77
2021/03/27 03:48:21;;;;;;;14.97;5.93;;;10.90;53.40;;;;;;5009793;28;20521;-76
2021/03/27 03:50:54;;;;;;;7.03;5.43;;;11.00;53.50;;;;;;5015797;28;20494;-76
2021/03/27 03:53:33;;;;;;;5.80;5.07;;;10.90;53.50;;;;;;5008203;28;20806;-75
2021/03/27 03:56:16;;;;;;;5.87;5.17;;;10.90;53.80;;;;;;5013139;28;20511;-76
2021/03/27 03:58:57;;;;;;;5.80;5.30;;;10.90;53.90;;;;;;5015340;28;20452;-75
2021/03/27 04:01:38;;;;;;;7.07;6.37;;;10.90;53.80;;;;;;5013435;28;20463;-76
2021/03/27 04:04:08;;;;;;;5.60;5.10;;;11.00;54.30;;;;;;5020638;28;20447;-76
2021/03/27 04:06:39;;;;;;;7.87;5.57;;;10.90;54.30;;;;;;5019926;28;20535;-76
2021/03/27 04:09:16;;;;;;;14.13;5.30;;;11.00;54.50;;;;;;5019369;28;20451;-76
2021/03/27 04:11:54;;;;;;;8.17;5.83;;;11.00;54.60;;;;;;5004390;28;20540;-77
2021/03/27 04:14:51;;;;;;;6.67;5.20;;;11.00;54.80;;;;;;5009815;28;20444;-76
2021/03/27 04:17:23;;;;;;;5.30;4.67;;;11.00;55.30;;;;;;5006048;28;20538;-77
2021/03/27 04:19:56;;;;;;;5.63;5.03;;;11.00;55.10;;;;;;5009351;28;20498;-75
2021/03/27 04:22:28;;;;;;;7.97;4.60;;;10.90;55.30;;;;;;5014076;28;20486;-77
2021/03/27 04:25:24;;;;;;;8.00;4.57;;;11.00;55.60;;;;;;5010897;28;20535;-76
2021/03/27 04:27:55;;;;;;;7.53;4.30;;;11.00;56.00;;;;;;5010811;28;20684;-77
2021/03/27 04:30:30;;;;;;;5.33;4.83;;;10.90;56.20;;;;;;5014686;28;21056;-76
2021/03/27 04:33:08;;;;;;;4.63;4.23;;;10.90;56.70;;;;;;5011282;28;20458;-78
2021/03/27 04:35:56;;;;;;;4.50;4.10;;;10.80;56.80;;;;;;5011220;28;21204;-79
2021/03/27 04:38:34;;;;;;;5.07;4.57;;;10.80;57.30;;;;;;5008044;28;20950;-76
2021/03/27 04:41:12;;;;;;;7.40;4.53;;;10.80;57.40;;;;;;5010533;28;20462;-76
2021/03/27 04:43:45;;;;;;;5.80;4.73;;;10.80;57.20;;;;;;5007478;28;20459;-77
2021/03/27 04:46:15;;;;;;;4.77;4.30;;;10.80;57.70;;;;;;5013659;28;20479;-76
2021/03/27 04:48:45;;;;;;;5.80;4.30;;;10.70;57.60;;;;;;5011165;28;20485;-75
2021/03/27 04:51:39;;;;;;;6.30;4.27;;;10.80;58.20;;;;;;5008596;28;20538;-76
2021/03/27 04:54:19;;;;;;;5.13;4.40;;;10.70;58.50;;;;;;5009262;28;20460;-75
2021/03/27 04:56:52;;;;;;;4.83;4.33;;;10.70;59.00;;;;;;5007762;28;20986;-75
2021/03/27 04:59:47;;;;;;;5.10;4.60;;;10.60;59.40;;;;;;5010730;28;20462;-76
2021/03/27 05:02:16;;;;;;;4.30;3.90;;;10.60;60.00;;;;;;5009940;28;20460;-77
2021/03/27 05:04:56;;;;;;;5.40;4.50;;;10.50;60.70;;;;;;5012254;28;20466;-75
2021/03/27 05:07:32;;;;;;;4.77;4.33;;;10.50;61.40;;;;;;5014815;28;20770;-76
2021/03/27 05:10:09;;;;;;;4.50;4.10;;;10.50;62.00;;;;;;5013172;28;20467;-75
2021/03/27 05:12:58;;;;;;;4.33;3.80;;;10.40;62.60;;;;;;5012248;28;20455;-76
2021/03/27 05:15:29;;;;;;;4.73;4.33;;;10.40;64.40;;;;;;5009943;28;20460;-76
2021/03/27 05:18:14;;;;;;;4.90;4.50;;;10.30;67.30;;;;;;5004590;28;20457;-80
2021/03/27 05:20:42;;;;;;;5.10;4.60;;;10.10;69.60;;;;;;5017518;28;20451;-75
2021/03/27 05:23:15;;;;;;;5.87;4.63;;;10.10;71.80;;;;;;5018924;28;20451;-75
2021/03/27 05:26:00;;;;;;;6.87;4.73;;;10.00;73.80;;;;;;5014565;28;20444;-75
2021/03/27 05:28:50;;;;;;;6.53;4.97;;;9.90;79.40;;;;;;5008842;28;20824;-76
2021/03/27 05:31:27;;;;;;;5.20;4.70;;;9.80;82.50;;;;;;5011145;28;20474;-76
2021/03/27 05:34:12;;;;;;;5.70;5.20;;;9.70;85.80;;;;;;5011792;28;20452;-76
2021/03/27 05:36:55;;;;;;;5.67;5.03;;;9.60;86.70;;;;;;5009567;28;20468;-76
2021/03/27 05:39:34;;;;;;;5.23;4.73;;;9.60;87.80;;;;;;5010447;28;20451;-78
2021/03/27 05:42:51;;;;;;;5.43;4.70;;;9.50;89.20;;;;;;5008189;28;20454;-76
2021/03/27 05:46:04;;;;;;;4.03;3.50;;;9.40;89.80;;;;;;5010987;28;20494;-77
2021/03/27 05:49:09;;;;;;;5.33;4.20;;;9.40;83.20;;;;;;5016429;28;20450;-75
2021/03/27 05:52:20;;;;;;;3.53;3.23;;;9.30;85.20;;;;;;5012632;28;20532;-76
2021/03/27 05:55:18;;;;;;;3.40;2.90;;;9.30;85.70;;;;;;5009001;28;20793;-76
2021/03/27 05:58:29;;;;;;;4.07;3.67;;;9.30;85.30;;;;;;5007474;28;20527;-78
2021/03/27 06:01:03;;;;;;;3.47;3.00;;;9.30;85.70;;;;;;5009484;28;20546;-78
2021/03/27 06:03:52;;;;;;;3.03;2.80;;;9.30;84.80;;;;;;5027604;28;20488;-75
2021/03/27 06:06:44;;;;;;;3.67;3.37;;;9.30;85.70;;;;;;5018669;28;20459;-76
2021/03/27 06:09:48;;;;;;;4.07;3.70;;;9.40;84.30;;;;;;4974657;28;21033;-76
2021/03/27 06:12:32;;;;;;;3.37;3.00;;;9.50;82.20;;;;;;5010564;28;20462;-76
2021/03/27 06:15:22;;;;;;;3.87;3.20;;;9.60;79.90;;;;;;5008875;28;20458;-76
2021/03/27 06:18:17;;;;;;;6.00;2.93;;;9.50;78.90;;;;;;4980849;28;20456;-76
2021/03/27 06:20:57;;;;;;;5.37;2.63;;;9.60;77.10;;;;;;5013289;28;20453;-77
2021/03/27 06:23:52;;;;;;;2.93;2.73;;;9.60;77.70;;;;;;5012979;28;20459;-77
2021/03/27 06:27:09;;;;;;;2.50;2.23;;;9.70;76.60;;;;;;5017812;28;20450;-76
2021/03/27 06:30:25;;;;;;;2.27;2.07;;;9.70;74.30;;;;;;4944355;29;20452;-75
2021/03/27 06:33:41;;;;;;;4.73;2.40;;;9.80;74.20;;;;;;4934890;29;20459;-75
2021/03/27 06:36:29;;;;;;;2.43;2.23;;;10.00;72.50;;;;;;5010457;28;20546;-76
2021/03/27 06:39:45;;;;;;;2.50;2.30;;;10.10;72.20;;;;;;5014058;28;20459;-76
2021/03/27 06:42:44;;;;;;;4.03;3.20;;;9.70;73.20;;;;;;5022438;28;20452;-77
2021/03/27 06:45:29;;;;;;;2.87;2.40;;;9.50;73.00;;;;;;5015282;28;20501;-76
2021/03/27 06:48:38;;;;;;;3.80;2.90;;;9.40;72.80;;;;;;5009435;28;20474;-77
2021/03/27 06:51:37;;;;;;;2.87;2.57;;;9.40;73.30;;;;;;5010039;28;20482;-76
2021/03/27 06:54:34;;;;;;;4.13;2.53;;;9.30;71.80;;;;;;5017688;28;20481;-77
2021/03/27 06:57:18;;;;;;;2.57;2.20;;;9.10;69.70;;;;;;5003368;28;20460;-75
2021/03/27 07:00:15;;;;;;;2.00;1.80;;;9.00;68.90;;;;;;5008521;28;20459;-75
2021/03/27 07:03:32;;;;;;;2.40;1.57;;;9.00;67.90;;;;;;5005947;28;20474;-76
2021/03/27 07:06:17;;;;;;;1.80;1.70;;;9.00;67.90;;;;;;5024331;28;20480;-76
2021/03/27 07:08:59;;;;;;;1.50;1.40;;;9.10;68.50;;;;;;5027630;28;20460;-76
2021/03/27 07:11:58;;;;;;;2.40;1.60;;;8.90;68.00;;;;;;5010160;28;20462;-76
2021/03/27 07:15:04;;;;;;;2.30;1.70;;;8.70;67.90;;;;;;5013879;28;20466;-77
2021/03/27 07:17:42;;;;;;;2.30;1.50;;;8.60;67.90;;;;;;5010908;28;20461;-76
2021/03/27 07:20:39;;;;;;;3.53;1.63;;;8.60;68.20;;;;;;5010564;28;21056;-79
2021/03/27 07:23:45;;;;;;;1.70;1.60;;;8.40;68.30;;;;;;5015235;28;20454;-76
2021/03/27 07:26:46;;;;;;;1.60;1.50;;;8.20;68.40;;;;;;5011865;28;20462;-75
2021/03/27 07:29:46;;;;;;;1.73;1.43;;;8.10;68.60;;;;;;5017546;28;20464;-75
2021/03/27 07:32:34;;;;;;;1.40;1.20;;;8.10;68.90;;;;;;5012479;28;20466;-76
2021/03/27 07:35:16;;;;;;;0.83;0.83;;;7.80;67.70;;;;;;5010122;28;20474;-75
2021/03/27 07:38:22;;;;;;;3.27;1.00;;;7.70;67.80;;;;;;5013283;28;20470;-76
2021/03/27 07:40:58;;;;;;;2.20;0.90;;;7.40;67.60;;;;;;5005684;28;20446;-76
2021/03/27 07:43:37;;;;;;;0.77;0.77;;;7.40;67.90;;;;;;5011653;28;20482;-75
2021/03/27 07:46:43;;;;;;;1.43;0.90;;;7.20;68.60;;;;;;5014400;28;20544;-76
2021/03/27 07:49:58;;;;;;;1.23;1.00;;;7.10;68.40;;;;;;4981647;28;20456;-78
2021/03/27 07:52:37;;;;;;;1.10;1.00;;;7.30;68.80;;;;;;4937908;29;20521;-75
2021/03/27 07:55:40;;;;;;;2.30;1.07;;;7.50;68.40;;;;;;4999714;28;20528;-76
2021/03/27 07:58:47;;;;;;;1.23;1.00;;;7.40;67.90;;;;;;5011695;28;22624;-76
2021/03/27 08:01:34;;;;;;;1.70;1.03;;;7.50;68.40;;;;;;5010044;28;20554;-78
2021/03/27 08:04:58;;;;;;;2.00;1.23;;;7.60;67.80;;;;;;5005889;28;20644;-76
2021/03/27 08:07:48;;;;;;;2.50;0.90;;;8.40;66.00;;;;;;5008726;28;20454;-80
2021/03/27 08:10:35;;;;;;;1.50;1.40;;;8.60;66.50;;;;;;5010938;28;20527;-78
2021/03/27 08:13:35;;;;;;;1.97;0.80;;;8.40;60.20;;;;;;5025500;28;20524;-81
2021/03/27 08:16:46;;;;;;;1.40;1.30;;;8.30;60.70;;;;;;5024177;28;20457;-81
2021/03/27 08:19:47;;;;;;;1.70;0.80;;;8.10;60.00;;;;;;5018814;28;20461;-82
2021/03/27 08:22:38;;;;;;;3.23;1.43;;;8.30;59.20;;;;;;5024713;28;20456;-80
2021/03/27 08:25:11;;;;;;;1.30;1.00;;;8.50;58.30;;;;;;5017390;28;20482;-79
2021/03/27 08:28:09;;;;;;;0.77;0.77;;;8.70;57.00;;;;;;5015785;28;20446;-81
2021/03/27 08:31:10;;;;;;;0.97;0.87;;;8.70;56.00;;;;;;5018360;28;20465;-80
2021/03/27 08:34:06;;;;;;;1.33;0.90;;;8.60;55.30;;;;;;5019546;28;20481;-78
2021/03/27 08:36:52;;;;;;;0.90;0.87;;;8.50;54.70;;;;;;5020046;28;20498;-80
2021/03/27 08:39:49;;;;;;;1.63;0.83;;;8.70;53.30;;;;;;5014897;28;20456;-80
2021/03/27 08:42:44;;;;;;;2.40;1.10;;;9.30;51.50;;;;;;5018109;28;20463;-78
2021/03/27 08:45:23;;;;;;;1.80;0.93;;;9.40;51.30;;;;;;5013512;28;20779;-79
2021/03/27 08:48:10;;;;;;;1.57;0.70;;;9.20;51.20;;;;;;5014903;28;20469;-79
2021/03/27 08:51:07;;;;;;;1.37;0.87;;;8.90;51.10;;;;;;5014179;28;20521;-79
2021/03/27 08:54:02;;;;;;;2.93;0.77;;;9.20;50.80;;;;;;5022289;28;20468;-79
2021/03/27 08:57:07;;;;;;;1.40;0.67;;;9.20;51.10;;;;;;4994846;28;20452;-79
2021/03/27 09:00:01;;;;;;;6.97;1.33;;;9.60;50.50;;;;;;5019263;28;20486;-79
2021/03/27 09:02:48;;;;;;;0.80;0.80;;;9.90;48.80;;;;;;5017477;28;20967;-79
2021/03/27 09:05:41;;;;;;;1.20;0.80;;;10.00;48.30;;;;;;5011199;28;20448;-77
2021/03/27 09:08:26;;;;;;;1.20;0.80;;;10.30;47.50;;;;;;5007730;28;20460;-78
2021/03/27 09:11:24;;;;;;;3.53;0.83;;;10.20;47.00;;;;;;5012004;28;20466;-78
2021/03/27 09:14:20;;;;;;;1.90;0.60;;;10.20;45.80;;;;;;5009933;28;20492;-78
2021/03/27 09:17:20;;;;;;;3.20;0.70;;;10.20;45.10;;;;;;5008523;28;20452;-78
2021/03/27 09:20:02;;;;;;;2.83;0.63;;;10.30;44.40;;;;;;5012819;28;20463;-77
2021/03/27 09:22:49;;;;;;;1.70;0.70;;;10.50;44.40;;;;;;5013931;28;20443;-78
2021/03/27 09:25:46;;;;;;;1.30;0.80;;;10.90;44.60;;;;;;5015027;28;20535;-78
2021/03/27 09:28:25;;;;;;;1.80;0.80;;;10.90;45.20;;;;;;4994961;28;20451;-77
2021/03/27 09:31:05;;;;;;;1.10;0.80;;;10.90;45.80;;;;;;5010967;28;21080;-78
2021/03/27 09:33:36;;;;;;;0.80;0.70;;;10.80;45.90;;;;;;5013778;28;20450;-78
2021/03/27 09:36:22;;;;;;;1.93;1.00;;;10.60;45.80;;;;;;5008219;28;20465;-77
2021/03/27 09:38:55;;;;;;;2.20;0.80;;;10.30;46.40;;;;;;5012284;28;20450;-78
2021/03/27 09:42:07;;;;;;;1.00;0.90;;;10.30;46.00;;;;;;5011836;28;20456;-76
2021/03/27 09:45:10;;;;;;;2.33;1.10;;;10.60;45.40;;;;;;5004429;28;20481;-75
2021/03/27 09:48:11;;;;;;;4.40;0.90;;;11.10;44.90;;;;;;5007079;28;20542;-75
2021/03/27 09:50:48;;;;;;;1.27;0.63;;;10.80;43.30;;;;;;5006840;28;20539;-77
2021/03/27 09:53:28;;;;;;;1.27;0.70;;;10.00;42.70;;;;;;5009320;28;22475;-75
2021/03/27 09:56:02;;;;;;;3.07;1.03;;;10.00;42.60;;;;;;5011850;28;20546;-77
2021/03/27 09:58:55;;;;;;;1.63;0.70;;;9.80;43.90;;;;;;5014752;28;20892;-75
2021/03/27 10:01:36;;;;;;;3.70;0.97;;;9.50;43.50;;;;;;5011609;28;20452;-75
2021/03/27 10:04:19;;;;;;;3.60;0.70;;;9.80;44.40;;;;;;5014808;28;20513;-72
2021/03/27 10:06:55;;;;;;;2.67;0.80;;;9.40;43.60;;;;;;5009673;28;20892;-72
2021/03/27 10:09:44;;;;;;;3.03;0.70;;;9.30;44.00;;;;;;5012811;28;20456;-73
2021/03/27 10:12:14;;;;;;;2.30;1.20;;;9.20;44.00;;;;;;5010627;28;20613;-73
2021/03/27 10:14:51;;;;;;;1.47;1.10;;;9.40;44.30;;;;;;5009660;28;20466;-75
2021/03/27 10:17:26;;;;;;;2.10;1.00;;;9.80;44.90;;;;;;5009917;28;20461;-73
2021/03/27 10:20:00;;;;;;;15.43;2.20;;;9.90;46.00;;;;;;5009199;28;20456;-73
2021/03/27 10:22:38;;;;;;;1.63;0.90;;;10.20;44.10;;;;;;5010100;28;20608;-73
2021/03/27 10:25:17;;;;;;;2.07;1.10;;;9.90;45.10;;;;;;5007713;28;20442;-73
2021/03/27 10:27:51;;;;;;;1.00;0.80;;;9.50;44.30;;;;;;5018001;28;20474;-73
2021/03/27 10:30:24;;;;;;;1.60;1.30;;;9.50;44.70;;;;;;5022663;28;20475;-72
2021/03/27 10:33:07;;;;;;;2.97;1.10;;;9.70;44.90;;;;;;5013570;28;20463;-73
2021/03/27 10:35:55;;;;;;;2.20;1.10;;;9.80;44.90;;;;;;5008212;28;20752;-73
2021/03/27 10:38:48;;;;;;;2.40;1.13;;;10.00;43.60;;;;;;5010377;28;20473;-74
2021/03/27 10:41:24;;;;;;;2.90;0.90;;;10.70;44.00;;;;;;5010711;28;20464;-78
2021/03/27 10:43:55;;;;;;;1.90;1.20;;;10.50;43.10;;;;;;5015337;28;20443;-76
2021/03/27 10:46:28;;;;;;;2.90;1.30;;;10.60;42.60;;;;;;5012556;28;20228;-77
2021/03/27 10:49:23;;;;;;;3.80;1.00;;;10.80;42.20;;;;;;5015739;28;20455;-73
2021/03/27 10:52:34;;;;;;;1.60;1.17;;;11.30;42.70;;;;;;5018411;28;20478;-76
2021/03/27 10:55:32;;;;;;;2.77;1.07;;;10.90;42.00;;;;;;5014026;28;20491;-74
2021/03/27 10:58:53;;;;;;;1.47;0.70;;;11.70;42.70;;;;;;5009625;28;20459;-75
2021/03/27 11:01:55;;;;;;;2.00;0.93;;;11.90;42.80;;;;;;5017489;28;21196;-76
2021/03/27 11:05:02;;;;;;;1.73;0.93;;;12.40;42.30;;;;;;5017184;28;20466;-76
2021/03/27 11:08:04;;;;;;;1.23;1.10;;;12.30;42.00;;;;;;5009893;28;20479;-72
2021/03/27 11:10:55;;;;;;;4.37;1.60;;;11.90;42.20;;;;;;5010325;28;20567;-72
2021/03/27 11:13:59;;;;;;;2.57;1.20;;;12.00;41.80;;;;;;5006809;28;20473;-74
2021/03/27 11:16:53;;;;;;;2.67;1.30;;;11.80;41.40;;;;;;5014900;28;20447;-77
2021/03/27 11:20:02;;;;;;;1.50;1.17;;;12.00;42.00;;;;;;5000033;28;20479;-75
2021/03/27 11:23:20;;;;;;;1.30;1.00;;;11.70;42.00;;;;;;5012296;28;20447;-77
2021/03/27 11:26:14;;;;;;;1.47;1.20;;;12.10;41.90;;;;;;5010575;28;20463;-77
2021/03/27 11:28:47;;;;;;;4.13;1.00;;;12.10;41.90;;;;;;5014951;28;20463;-77
2021/03/27 11:31:29;;;;;;;3.17;1.03;;;12.10;41.50;;;;;;5015367;28;20528;-76
2021/03/27 11:34:07;;;;;;;1.97;1.03;;;12.30;41.10;;;;;;5011513;28;20487;-77
2021/03/27 11:36:41;;;;;;;1.20;1.00;;;12.60;40.50;;;;;;5012249;28;20483;-77
2021/03/27 11:39:26;;;;;;;1.90;1.13;;;12.50;40.20;;;;;;5012350;28;20542;-75
2021/03/27 11:42:05;;;;;;;3.37;1.40;;;12.80;40.40;;;;;;5015688;28;20448;-76
2021/03/27 11:45:04;;;;;;;3.80;1.10;;;12.70;40.30;;;;;;5025010;28;20484;-82
2021/03/27 11:47:36;;;;;;;3.27;1.03;;;12.60;40.30;;;;;;5031528;28;20983;-81
2021/03/27 11:50:14;;;;;;;2.40;1.37;;;12.50;39.90;;;;;;5023440;28;20449;-81
2021/03/27 11:52:49;;;;;;;3.40;1.30;;;12.40;40.10;;;;;;5027341;28;20452;-80
2021/03/27 11:55:23;;;;;;;2.50;1.10;;;12.80;40.30;;;;;;5028153;28;20497;-81
2021/03/27 11:57:55;;;;;;;2.73;0.90;;;13.30;40.00;;;;;;5027375;28;20448;-75
2021/03/27 12:03:48;;;;;;;1.95;1.23;;;12.50;39.60;;;;;;5020206;28;20447;-80
2021/03/27 12:06:20;;;;;;;3.13;1.00;;;12.80;39.50;;;;;;5021933;28;20639;-80
2021/03/27 12:08:59;;;;;;;2.80;0.90;;;12.40;39.40;;;;;;5020859;28;20562;-81
2021/03/27 12:11:58;;;;;;;2.77;0.90;;;11.90;38.90;;;;;;5024730;28;20474;-80
2021/03/27 12:14:31;;;;;;;1.63;0.80;;;12.00;39.60;;;;;;5026577;28;20455;-80
2021/03/27 12:17:01;;;;;;;2.73;1.30;;;11.30;39.50;;;;;;5019672;28;20455;-79
2021/03/27 12:19:33;;;;;;;2.03;0.90;;;11.70;40.00;;;;;;5019259;28;20455;-80
2021/03/27 12:22:13;;;;;;;5.47;1.50;;;11.40;39.60;;;;;;5020813;28;20990;-82
2021/03/27 12:24:48;;;;;;;2.00;1.00;;;11.40;39.80;;;;;;5017275;28;20534;-80
2021/03/27 12:27:48;;;;;;;4.07;1.00;;;11.40;39.80;;;;;;5016644;28;20969;-80
2021/03/27 12:30:28;;;;;;;1.33;0.90;;;11.90;39.20;;;;;;5021544;28;20810;-80
2021/03/27 12:33:01;;;;;;;1.37;0.87;;;12.00;39.10;;;;;;5016241;28;20455;-82
2021/03/27 12:35:35;;;;;;;3.87;1.20;;;12.30;38.70;;;;;;5024360;28;20483;-80
2021/03/27 12:38:17;;;;;;;4.60;1.00;;;12.60;39.20;;;;;;5024001;28;20458;-80
2021/03/27 12:40:55;;;;;;;2.50;1.00;;;12.60;39.50;;;;;;5029732;28;20476;-79
2021/03/27 12:43:24;;;;;;;4.40;1.20;;;13.20;39.30;;;;;;5013453;28;20543;-80
2021/03/27 12:46:05;;;;;;;2.80;1.00;;;12.70;39.10;;;;;;5024594;28;20476;-80
2021/03/27 12:48:43;;;;;;;8.47;1.20;;;12.30;39.00;;;;;;5023222;28;20579;-79
2021/03/27 12:51:15;;;;;;;2.10;0.60;;;12.20;38.60;;;;;;5027551;28;20498;-81
2021/03/27 12:54:02;;;;;;;1.30;0.87;;;11.80;38.70;;;;;;5026560;28;20459;-82
2021/03/27 12:57:12;;;;;;;5.37;1.00;;;12.30;38.40;;;;;;5030249;28;20466;-81
2021/03/27 12:59:55;;;;;;;3.03;0.73;;;12.10;37.30;;;;;;5033566;28;20474;-82
2021/03/27 13:02:40;;;;;;;2.93;1.00;;;11.80;37.90;;;;;;5019639;28;20462;-80
2021/03/27 13:05:18;;;;;;;2.33;1.00;;;12.30;38.40;;;;;;5024407;28;20478;-81
2021/03/27 13:08:01;;;;;;;1.67;0.67;;;11.90;36.60;;;;;;5032274;28;20471;-79
2021/03/27 13:10:46;;;;;;;1.00;0.77;;;11.70;36.90;;;;;;5027674;28;20533;-80
2021/03/27 13:13:45;;;;;;;4.33;0.97;;;12.30;37.70;;;;;;5016985;28;20449;-80
2021/03/27 13:16:20;;;;;;;3.07;0.97;;;12.40;37.50;;;;;;5024691;28;20451;-80
2021/03/27 13:18:56;;;;;;;2.10;0.90;;;12.50;37.30;;;;;;5021185;28;20451;-77
2021/03/27 13:21:53;;;;;;;2.67;1.10;;;12.50;37.00;;;;;;5012818;28;20578;-74
2021/03/27 13:24:23;;;;;;;2.23;0.80;;;12.20;36.70;;;;;;5023589;28;20484;-83
2021/03/27 13:27:00;;;;;;;3.03;1.70;;;12.00;37.10;;;;;;5024362;28;20449;-85
2021/03/27 13:29:32;;;;;;;3.40;0.87;;;12.20;36.90;;;;;;5008265;28;20456;-81
2021/03/27 13:32:06;;;;;;;3.73;1.13;;;12.20;37.50;;;;;;5026790;28;20536;-84
2021/03/27 13:34:36;;;;;;;1.13;0.77;;;12.30;37.50;;;;;;5023848;28;20490;-80
2021/03/27 13:37:09;;;;;;;2.30;0.73;;;12.30;36.70;;;;;;5022451;28;20554;-79
2021/03/27 13:39:39;;;;;;;2.27;1.10;;;12.20;36.20;;;;;;5029860;28;20455;-81
2021/03/27 13:42:39;;;;;;;1.23;0.77;;;12.20;36.10;;;;;;5029915;28;20463;-81
2021/03/27 13:45:22;;;;;;;2.20;1.00;;;12.30;36.70;;;;;;5025277;28;20491;-88
2021/03/27 13:48:33;;;;;;;5.10;0.80;;;12.40;36.40;;;;;;5029862;28;21048;-84
2021/03/27 13:51:13;;;;;;;2.15;1.17;;;12.30;35.80;;;;;;5013622;28;20806;-76
2021/03/27 13:53:48;;;;;;;2.20;1.10;;;12.10;36.10;;;;;;5015176;28;20200;-76
2021/03/27 13:56:31;;;;;;;2.13;1.00;;;12.20;36.30;;;;;;5008460;28;20970;-77
2021/03/27 13:59:15;;;;;;;1.93;0.67;;;12.10;35.30;;;;;;5007994;28;20487;-76
2021/03/27 14:01:48;;;;;;;2.93;1.17;;;11.70;35.80;;;;;;5008356;28;20487;-76
2021/03/27 14:04:20;;;;;;;3.27;1.17;;;11.50;36.20;;;;;;5008814;28;20820;-76
2021/03/27 14:06:56;;;;;;;3.63;0.70;;;11.20;36.10;;;;;;5009451;28;20530;-76
2021/03/27 14:09:37;;;;;;;2.10;0.90;;;11.40;36.40;;;;;;5009081;28;20456;-78
2021/03/27 14:12:13;;;;;;;1.40;0.90;;;11.30;36.20;;;;;;5007198;28;20479;-78
2021/03/27 14:15:10;;;;;;;3.37;1.03;;;11.10;36.00;;;;;;5007518;28;20455;-77
2021/03/27 14:17:48;;;;;;;3.70;1.00;;;11.20;36.60;;;;;;5009329;28;20454;-77